Información del aeropuerto LTFM

Información de pista
Frecuencias del aeropuerto
Radioayudas del aeropuerto
Información meteorológica del aeropuerto y NOTAM
ADDS - METARS form results

(0146 UTC 20 September 2020)
Data provider http://aviationweather.gov/metar/data/
 
METAR text: LTFM 200120Z 06011KT 9999 BKN033 20/10 Q1017 NOSIG RMK RWY17L 06009KT RWY34L 05008KT RWY16R 06009KT RWY36 06010KT RWY18 06009KT
Conditions at: LTFM (ISTANBUL HANALI , TR) observed 0120 UTC 20 September 2020
Temperature: 20.0°C (68°F)
Dewpoint: 10.0°C (50°F) [RH = 53%]
Pressure (altimeter): 30.03 inches Hg (1017.0 mb)
Winds: from the ENE (60 degrees) at 13 MPH (11 knots; 5.7 m/s)
Visibility: 6 or more miles (10+ km)
Ceiling: 3300 feet AGL
Clouds: broken clouds at 3300 feet AGL
Weather: no significant weather observed at this time

METAR text: LTFM 200050Z 06009KT 9999 BKN033 20/10 Q1018 NOSIG RMK RWY17L 06008KT RWY34L 05007KT RWY16R 05008KT RWY36 06009KT RWY18 06009KT
Conditions at: LTFM (ISTANBUL HANALI , TR) observed 0050 UTC 20 September 2020
Temperature: 20.0°C (68°F)
Dewpoint: 10.0°C (50°F) [RH = 53%]
Pressure (altimeter): 30.06 inches Hg (1018.0 mb)
Winds: from the ENE (60 degrees) at 10 MPH (9 knots; 4.6 m/s)
Visibility: 6 or more miles (10+ km)
Ceiling: 3300 feet AGL
Clouds: broken clouds at 3300 feet AGL
Weather: no significant weather observed at this time

Forecast for: LTFM (ISTANBUL HANALI , TR)
Text: TAF LTFM 192240Z 2000/2106 04018KT 9999 BKN033
Forecast period: 0000 UTC 20 September 2020 to 0600 UTC 21 September 2020
Forecast type: FROM: standard forecast or significant change
Winds: from the NE (40 degrees) at 21 MPH (18 knots; 9.3 m/s)
Visibility: 6 or more miles (10+ km)
Ceiling: 3300 feet AGL
Clouds: broken clouds at 3300 feet AGL
Weather: no significant weather forecast for this period
Text: PROB40
Forecast period: 1200 to 1600 UTC 20 September 2020
Forecast type: TEMPORARY: The following changes expected for less than half the time period
Winds: from the NNE (30 degrees) at 23 MPH (20 knots; 10.3 m/s)
gusting to 34 MPH (30 knots; 15.4 m/s)
Visibility: missing
Ceiling: 2500 feet AGL
Clouds: few clouds at 1500 feet AGL
broken clouds at 2500 feet AGL
Weather: -SHRA  (light rain showers)